SIA213 WSSS-YPPH
Flight info
| Callsign | SIA213 |
|---|---|
| Flight time | N/A |
| Altitude | 39000 |
| Route | ANITO7A ANITO B470 PKP L764 LAMOB B469 TOPIR/N0488F400 L514 AVPAL Q38 JULIM |
| Aircraft | A359/H-SDE1E2E3GHIJ1J2J3J5M1P2RWXYZ/LB1D1 |
Departure
| Time | N/A |
|---|---|
| Airport | Singapore Changi Airport (WSSS) |
Arrival
| Time | 2026-04-28 15:10 |
|---|---|
| Airport | Perth International Airport (YPPH) |
| Time | Latitude | Longitude | Altitude | Speed | Heading |
|---|---|---|---|---|---|
| 2026-04-28 12:02 | -8.53028 | 107.88305 | 38851 ft | 490 kts | 164° |
| 2026-04-28 12:03 | -8.59601 | 107.90183 | 38851 ft | 491 kts | 164° |
| 2026-04-28 12:03 | -8.66174 | 107.92059 | 38850 ft | 491 kts | 164° |
| 2026-04-28 12:04 | -8.72749 | 107.93937 | 38851 ft | 491 kts | 164° |
| 2026-04-28 12:04 | -8.79328 | 107.95815 | 38851 ft | 492 kts | 164° |
| 2026-04-28 12:05 | -8.85919 | 107.97697 | 38850 ft | 492 kts | 164° |
| 2026-04-28 12:05 | -8.92493 | 107.99576 | 38851 ft | 490 kts | 164° |
| 2026-04-28 12:06 | -8.99058 | 108.01450 | 38852 ft | 490 kts | 164° |
| 2026-04-28 12:06 | -9.05620 | 108.03325 | 38860 ft | 490 kts | 164° |
| 2026-04-28 12:07 | -9.12191 | 108.05206 | 38859 ft | 491 kts | 165° |
| 2026-04-28 12:07 | -9.18759 | 108.07088 | 38860 ft | 491 kts | 165° |
| 2026-04-28 12:08 | -9.25336 | 108.08971 | 38860 ft | 491 kts | 165° |
| 2026-04-28 12:08 | -9.31914 | 108.10855 | 38860 ft | 492 kts | 165° |
| 2026-04-28 12:09 | -9.38496 | 108.12741 | 38859 ft | 492 kts | 165° |
| 2026-04-28 12:09 | -9.45083 | 108.14631 | 38859 ft | 492 kts | 165° |
| 2026-04-28 12:10 | -9.51668 | 108.16519 | 38860 ft | 492 kts | 165° |
| 2026-04-28 12:10 | -9.58264 | 108.18411 | 38860 ft | 492 kts | 165° |
| 2026-04-28 12:11 | -9.64851 | 108.20300 | 38860 ft | 492 kts | 165° |
| 2026-04-28 12:11 | -9.70334 | 108.21872 | 38860 ft | 492 kts | 165° |
| 2026-04-28 12:12 | -9.76923 | 108.23765 | 38860 ft | 493 kts | 165° |
| 2026-04-28 12:12 | -9.83517 | 108.25660 | 38859 ft | 493 kts | 165° |
| 2026-04-28 12:13 | -9.90114 | 108.27556 | 38860 ft | 493 kts | 165° |
| 2026-04-28 12:13 | -9.96709 | 108.29452 | 38868 ft | 492 kts | 165° |
| 2026-04-28 12:14 | -10.03304 | 108.31349 | 38869 ft | 493 kts | 165° |
| 2026-04-28 12:14 | -10.09907 | 108.33249 | 38867 ft | 493 kts | 165° |
| 2026-04-28 12:15 | -10.16499 | 108.35147 | 38870 ft | 493 kts | 165° |
| 2026-04-28 12:15 | -10.23099 | 108.37049 | 38869 ft | 493 kts | 165° |
| 2026-04-28 12:16 | -10.29647 | 108.38937 | 38867 ft | 492 kts | 165° |
| 2026-04-28 12:16 | -10.36242 | 108.40839 | 38867 ft | 493 kts | 165° |
| 2026-04-28 12:17 | -10.42840 | 108.42741 | 38867 ft | 493 kts | 165° |
| 2026-04-28 12:17 | -10.49445 | 108.44649 | 38877 ft | 493 kts | 165° |
| 2026-04-28 12:18 | -10.56054 | 108.46556 | 38878 ft | 494 kts | 165° |
| 2026-04-28 12:18 | -10.62661 | 108.48462 | 38878 ft | 493 kts | 165° |
| 2026-04-28 12:19 | -10.69267 | 108.50370 | 38877 ft | 494 kts | 165° |
| 2026-04-28 12:19 | -10.75875 | 108.52282 | 38886 ft | 494 kts | 165° |
| 2026-04-28 12:20 | -10.82489 | 108.54196 | 38896 ft | 494 kts | 165° |
| 2026-04-28 12:20 | -10.89105 | 108.56112 | 38898 ft | 495 kts | 165° |
| 2026-04-28 12:21 | -10.95729 | 108.58026 | 38898 ft | 495 kts | 165° |
| 2026-04-28 12:21 | -11.02353 | 108.59942 | 38895 ft | 495 kts | 165° |
| 2026-04-28 12:22 | -11.08979 | 108.61862 | 38897 ft | 495 kts | 165° |
| 2026-04-28 12:22 | -11.15605 | 108.63784 | 38898 ft | 495 kts | 165° |
| 2026-04-28 12:23 | -11.22238 | 108.65708 | 38897 ft | 496 kts | 165° |
| 2026-04-28 12:23 | -11.28876 | 108.67633 | 38897 ft | 496 kts | 165° |
| 2026-04-28 12:24 | -11.35517 | 108.69558 | 38897 ft | 496 kts | 165° |
| 2026-04-28 12:24 | -11.42159 | 108.71489 | 38895 ft | 496 kts | 165° |
| 2026-04-28 12:25 | -11.48800 | 108.73420 | 38898 ft | 496 kts | 165° |
| 2026-04-28 12:25 | -11.55449 | 108.75350 | 38897 ft | 497 kts | 165° |
| 2026-04-28 12:26 | -11.62093 | 108.77284 | 38899 ft | 496 kts | 165° |
| 2026-04-28 12:26 | -11.68735 | 108.79217 | 38898 ft | 497 kts | 165° |
| 2026-04-28 12:27 | -11.75334 | 108.81139 | 38898 ft | 497 kts | 165° |
| 2026-04-28 12:27 | -11.81990 | 108.83078 | 38894 ft | 498 kts | 165° |
| 2026-04-28 12:28 | -11.88646 | 108.85019 | 38899 ft | 497 kts | 165° |
| 2026-04-28 12:28 | -11.95292 | 108.86957 | 38898 ft | 497 kts | 165° |
| 2026-04-28 12:29 | -12.05234 | 108.89991 | 38897 ft | 498 kts | 162° |
| 2026-04-28 12:30 | -12.11785 | 108.92318 | 38898 ft | 499 kts | 161° |
| 2026-04-28 12:30 | -12.18335 | 108.94658 | 38897 ft | 499 kts | 162° |
| 2026-04-28 12:31 | -12.24899 | 108.96959 | 38897 ft | 498 kts | 162° |
| 2026-04-28 12:31 | -12.31466 | 108.99239 | 38897 ft | 498 kts | 162° |
| 2026-04-28 12:32 | -12.38039 | 109.01517 | 38897 ft | 499 kts | 162° |
| 2026-04-28 12:32 | -12.44609 | 109.03799 | 38899 ft | 499 kts | 162° |
| 2026-04-28 12:33 | -12.51181 | 109.06081 | 38905 ft | 499 kts | 162° |
| 2026-04-28 12:33 | -12.57752 | 109.08366 | 38906 ft | 499 kts | 162° |
| 2026-04-28 12:34 | -12.64321 | 109.10650 | 38908 ft | 499 kts | 163° |
| 2026-04-28 12:34 | -12.70893 | 109.12937 | 38908 ft | 499 kts | 163° |
| 2026-04-28 12:35 | -12.77465 | 109.15226 | 38916 ft | 499 kts | 163° |
| 2026-04-28 12:35 | -12.84040 | 109.17517 | 38916 ft | 499 kts | 163° |
| 2026-04-28 12:36 | -12.90616 | 109.19811 | 38913 ft | 499 kts | 163° |
| 2026-04-28 12:36 | -12.97192 | 109.22101 | 38918 ft | 499 kts | 163° |
| 2026-04-28 12:37 | -13.03772 | 109.24397 | 38915 ft | 499 kts | 163° |
| 2026-04-28 12:37 | -13.10354 | 109.26697 | 38921 ft | 500 kts | 163° |
| 2026-04-28 12:38 | -13.16931 | 109.28996 | 38930 ft | 500 kts | 163° |
| 2026-04-28 12:38 | -13.23520 | 109.31300 | 38928 ft | 500 kts | 163° |
| 2026-04-28 12:39 | -13.30062 | 109.33586 | 38933 ft | 500 kts | 163° |
| 2026-04-28 12:39 | -13.36654 | 109.35893 | 38928 ft | 501 kts | 163° |
| 2026-04-28 12:40 | -13.43241 | 109.38201 | 38914 ft | 501 kts | 163° |
| 2026-04-28 12:40 | -13.49841 | 109.40512 | 38926 ft | 501 kts | 163° |
| 2026-04-28 12:41 | -13.56437 | 109.42824 | 38931 ft | 501 kts | 163° |
| 2026-04-28 12:41 | -13.63035 | 109.45140 | 38925 ft | 501 kts | 163° |
| 2026-04-28 12:42 | -13.69641 | 109.47460 | 38929 ft | 501 kts | 163° |
| 2026-04-28 12:42 | -13.76181 | 109.49757 | 38925 ft | 502 kts | 163° |
| 2026-04-28 12:43 | -13.82790 | 109.52080 | 38929 ft | 502 kts | 163° |
| 2026-04-28 12:43 | -13.89397 | 109.54403 | 38927 ft | 502 kts | 163° |
| 2026-04-28 12:44 | -13.96008 | 109.56733 | 38924 ft | 502 kts | 163° |
| 2026-04-28 12:44 | -14.02613 | 109.59058 | 38928 ft | 502 kts | 163° |
| 2026-04-28 12:45 | -14.09221 | 109.61382 | 38928 ft | 502 kts | 163° |
| 2026-04-28 12:45 | -14.15829 | 109.63709 | 38919 ft | 502 kts | 163° |
| 2026-04-28 12:46 | -14.22440 | 109.66041 | 38923 ft | 502 kts | 163° |
| 2026-04-28 12:46 | -14.29049 | 109.68376 | 38925 ft | 502 kts | 163° |
| 2026-04-28 12:47 | -14.35663 | 109.70712 | 38916 ft | 502 kts | 163° |
| 2026-04-28 12:47 | -14.42274 | 109.73048 | 38932 ft | 502 kts | 163° |
| 2026-04-28 12:48 | -14.48841 | 109.75370 | 38929 ft | 502 kts | 163° |
| 2026-04-28 12:48 | -14.55448 | 109.77710 | 38930 ft | 502 kts | 163° |
| 2026-04-28 12:49 | -14.62059 | 109.80049 | 38915 ft | 502 kts | 163° |
| 2026-04-28 12:49 | -14.68678 | 109.82393 | 38931 ft | 503 kts | 163° |
| 2026-04-28 12:50 | -14.75299 | 109.84741 | 38925 ft | 503 kts | 163° |
| 2026-04-28 12:50 | -14.81916 | 109.87089 | 38919 ft | 503 kts | 163° |
| 2026-04-28 12:51 | -14.88531 | 109.89437 | 38935 ft | 503 kts | 163° |
| 2026-04-28 12:51 | -14.95159 | 109.91790 | 38932 ft | 504 kts | 163° |
| 2026-04-28 12:52 | -15.01785 | 109.94145 | 38936 ft | 504 kts | 163° |
| 2026-04-28 12:52 | -15.08414 | 109.96503 | 38931 ft | 504 kts | 164° |
| 2026-04-28 12:53 | -15.15045 | 109.98864 | 38935 ft | 504 kts | 164° |
| 2026-04-28 12:53 | -15.21687 | 110.01230 | 38933 ft | 505 kts | 164° |
| 2026-04-28 12:54 | -15.28332 | 110.03598 | 38929 ft | 506 kts | 164° |
| 2026-04-28 12:54 | -15.34999 | 110.05974 | 38939 ft | 507 kts | 164° |
| 2026-04-28 12:55 | -15.41665 | 110.08352 | 38942 ft | 507 kts | 164° |
| 2026-04-28 12:55 | -15.48330 | 110.10733 | 38945 ft | 507 kts | 164° |
| 2026-04-28 12:56 | -15.54993 | 110.13114 | 38945 ft | 507 kts | 164° |
| 2026-04-28 12:56 | -15.61666 | 110.15498 | 38944 ft | 507 kts | 164° |
| 2026-04-28 12:57 | -15.68340 | 110.17885 | 38944 ft | 507 kts | 164° |
| 2026-04-28 12:57 | -15.75014 | 110.20275 | 38942 ft | 507 kts | 164° |
| 2026-04-28 12:58 | -15.81685 | 110.22668 | 38946 ft | 507 kts | 164° |
| 2026-04-28 12:58 | -15.88362 | 110.25064 | 38943 ft | 507 kts | 164° |
| 2026-04-28 12:59 | -15.93910 | 110.27055 | 38942 ft | 507 kts | 164° |
| 2026-04-28 12:59 | -16.00584 | 110.29451 | 38944 ft | 507 kts | 164° |
| 2026-04-28 13:00 | -16.08338 | 110.32237 | 38944 ft | 507 kts | 164° |
| 2026-04-28 13:00 | -16.13919 | 110.34244 | 38941 ft | 507 kts | 164° |
| 2026-04-28 13:01 | -16.20587 | 110.36641 | 38939 ft | 507 kts | 164° |
| 2026-04-28 13:01 | -16.27261 | 110.39042 | 38940 ft | 507 kts | 164° |
| 2026-04-28 13:02 | -16.33930 | 110.41446 | 38942 ft | 507 kts | 164° |
| 2026-04-28 13:02 | -16.40600 | 110.43851 | 38952 ft | 507 kts | 164° |
| 2026-04-28 13:03 | -16.47261 | 110.46257 | 38952 ft | 506 kts | 164° |
| 2026-04-28 13:03 | -16.53925 | 110.48664 | 38952 ft | 507 kts | 164° |
| 2026-04-28 13:04 | -16.60588 | 110.51071 | 38953 ft | 507 kts | 164° |
| 2026-04-28 13:04 | -16.67242 | 110.53476 | 38952 ft | 506 kts | 164° |
| 2026-04-28 13:05 | -16.73849 | 110.55868 | 38955 ft | 506 kts | 164° |
| 2026-04-28 13:05 | -16.80500 | 110.58277 | 38953 ft | 506 kts | 164° |
| 2026-04-28 13:06 | -16.87145 | 110.60686 | 38952 ft | 505 kts | 165° |
| 2026-04-28 13:06 | -16.93788 | 110.63096 | 38952 ft | 505 kts | 165° |
| 2026-04-28 13:07 | -17.00424 | 110.65504 | 38952 ft | 505 kts | 164° |
| 2026-04-28 13:07 | -17.07051 | 110.67912 | 38952 ft | 504 kts | 165° |
| 2026-04-28 13:08 | -17.13677 | 110.70321 | 38954 ft | 504 kts | 165° |
| 2026-04-28 13:08 | -17.20298 | 110.72729 | 38952 ft | 504 kts | 165° |
| 2026-04-28 13:09 | -17.26919 | 110.75139 | 38952 ft | 503 kts | 165° |
| 2026-04-28 13:09 | -17.33533 | 110.77549 | 38959 ft | 503 kts | 165° |
| 2026-04-28 13:10 | -17.40140 | 110.79958 | 38962 ft | 503 kts | 165° |
| 2026-04-28 13:10 | -17.46746 | 110.82370 | 38962 ft | 503 kts | 165° |
| 2026-04-28 13:11 | -17.53348 | 110.84781 | 38962 ft | 503 kts | 165° |
| 2026-04-28 13:11 | -17.59953 | 110.87195 | 38962 ft | 503 kts | 165° |
| 2026-04-28 13:12 | -17.66558 | 110.89612 | 38962 ft | 503 kts | 165° |
| 2026-04-28 13:12 | -17.73163 | 110.92029 | 38962 ft | 503 kts | 165° |
| 2026-04-28 13:13 | -17.79776 | 110.94451 | 38962 ft | 504 kts | 165° |
| 2026-04-28 13:13 | -17.86394 | 110.96878 | 38962 ft | 504 kts | 165° |
| 2026-04-28 13:14 | -17.93016 | 110.99309 | 38962 ft | 504 kts | 165° |
| 2026-04-28 13:14 | -17.99642 | 111.01741 | 38962 ft | 505 kts | 165° |
| 2026-04-28 13:15 | -18.06270 | 111.04176 | 38961 ft | 504 kts | 165° |
| 2026-04-28 13:15 | -18.12889 | 111.06610 | 38962 ft | 504 kts | 165° |
| 2026-04-28 13:16 | -18.19513 | 111.09046 | 38964 ft | 504 kts | 165° |
| 2026-04-28 13:16 | -18.26099 | 111.11474 | 38970 ft | 505 kts | 165° |
| 2026-04-28 13:17 | -18.32729 | 111.13923 | 38972 ft | 505 kts | 165° |
| 2026-04-28 13:17 | -18.39365 | 111.16373 | 38972 ft | 505 kts | 165° |
| 2026-04-28 13:18 | -18.46008 | 111.18827 | 38971 ft | 506 kts | 165° |
| 2026-04-28 13:18 | -18.52652 | 111.21287 | 38971 ft | 506 kts | 165° |
| 2026-04-28 13:19 | -18.59297 | 111.23746 | 38971 ft | 506 kts | 165° |
| 2026-04-28 13:19 | -18.65945 | 111.26209 | 38972 ft | 506 kts | 165° |
| 2026-04-28 13:20 | -18.72593 | 111.28674 | 38972 ft | 506 kts | 165° |
| 2026-04-28 13:20 | -18.79240 | 111.31142 | 38971 ft | 506 kts | 165° |
| 2026-04-28 13:21 | -18.85888 | 111.33611 | 38972 ft | 506 kts | 165° |
| 2026-04-28 13:21 | -18.92533 | 111.36080 | 38972 ft | 506 kts | 165° |
| 2026-04-28 13:22 | -18.99179 | 111.38554 | 38983 ft | 506 kts | 165° |
| 2026-04-28 13:22 | -19.05824 | 111.41027 | 38991 ft | 506 kts | 165° |
| 2026-04-28 13:23 | -19.12423 | 111.43487 | 38990 ft | 506 kts | 165° |
| 2026-04-28 13:23 | -19.19065 | 111.45964 | 38994 ft | 506 kts | 165° |
| 2026-04-28 13:24 | -19.25709 | 111.48444 | 38987 ft | 506 kts | 165° |
| 2026-04-28 13:24 | -19.32349 | 111.50926 | 38988 ft | 506 kts | 165° |
| 2026-04-28 13:25 | -19.38995 | 111.53412 | 38987 ft | 507 kts | 165° |
| 2026-04-28 13:25 | -19.45645 | 111.55904 | 38991 ft | 507 kts | 165° |
| 2026-04-28 13:26 | -19.52297 | 111.58395 | 38996 ft | 507 kts | 165° |
| 2026-04-28 13:26 | -19.58952 | 111.60890 | 38990 ft | 507 kts | 165° |
| 2026-04-28 13:27 | -19.65607 | 111.63388 | 38988 ft | 508 kts | 165° |
| 2026-04-28 13:27 | -19.72270 | 111.65890 | 38992 ft | 508 kts | 165° |
| 2026-04-28 13:28 | -19.78935 | 111.68394 | 38987 ft | 508 kts | 165° |
| 2026-04-28 13:28 | -19.85604 | 111.70906 | 38985 ft | 509 kts | 165° |
| 2026-04-28 13:29 | -19.92278 | 111.73420 | 38988 ft | 509 kts | 165° |
| 2026-04-28 13:29 | -19.98955 | 111.75936 | 38992 ft | 509 kts | 165° |
| 2026-04-28 13:30 | -20.05633 | 111.78458 | 38985 ft | 509 kts | 165° |
| 2026-04-28 13:30 | -20.12305 | 111.80977 | 38997 ft | 509 kts | 165° |
| 2026-04-28 13:31 | -20.22319 | 111.84762 | 38988 ft | 509 kts | 165° |
| 2026-04-28 13:31 | -20.28985 | 111.87288 | 38988 ft | 508 kts | 165° |
| 2026-04-28 13:32 | -20.35608 | 111.89797 | 38994 ft | 508 kts | 165° |
| 2026-04-28 13:32 | -20.42266 | 111.92320 | 38991 ft | 507 kts | 165° |
| 2026-04-28 13:33 | -20.48912 | 111.94842 | 38995 ft | 507 kts | 165° |
| 2026-04-28 13:33 | -20.55553 | 111.97365 | 38987 ft | 506 kts | 165° |
| 2026-04-28 13:34 | -20.62182 | 111.99886 | 38993 ft | 505 kts | 165° |
| 2026-04-28 13:34 | -20.68799 | 112.02404 | 38990 ft | 506 kts | 165° |
| 2026-04-28 13:35 | -20.75440 | 112.04934 | 38997 ft | 507 kts | 165° |
| 2026-04-28 13:35 | -20.82085 | 112.07470 | 38989 ft | 507 kts | 165° |
| 2026-04-28 13:36 | -20.88729 | 112.10006 | 38991 ft | 507 kts | 165° |
| 2026-04-28 13:36 | -20.95362 | 112.12539 | 38988 ft | 506 kts | 165° |
| 2026-04-28 13:37 | -21.01984 | 112.15072 | 38991 ft | 505 kts | 165° |
| 2026-04-28 13:37 | -21.08594 | 112.17602 | 38991 ft | 504 kts | 166° |
| 2026-04-28 13:38 | -21.15192 | 112.20129 | 38992 ft | 503 kts | 165° |
| 2026-04-28 13:38 | -21.21773 | 112.22654 | 38994 ft | 502 kts | 166° |
| 2026-04-28 13:39 | -21.28295 | 112.25157 | 38993 ft | 501 kts | 166° |
| 2026-04-28 13:39 | -21.34846 | 112.27675 | 38986 ft | 500 kts | 166° |
| 2026-04-28 13:40 | -21.41387 | 112.30190 | 38989 ft | 499 kts | 166° |
| 2026-04-28 13:40 | -21.47918 | 112.32705 | 38988 ft | 498 kts | 166° |
| 2026-04-28 13:41 | -21.54434 | 112.35215 | 38990 ft | 497 kts | 166° |
| 2026-04-28 13:41 | -21.60941 | 112.37725 | 38994 ft | 497 kts | 166° |
| 2026-04-28 13:42 | -21.67433 | 112.40230 | 38987 ft | 496 kts | 166° |
| 2026-04-28 13:42 | -21.73925 | 112.42738 | 38988 ft | 496 kts | 166° |
| 2026-04-28 13:43 | -21.80416 | 112.45251 | 38988 ft | 495 kts | 166° |
| 2026-04-28 13:43 | -21.86895 | 112.47760 | 38993 ft | 495 kts | 166° |
| 2026-04-28 13:44 | -21.93371 | 112.50270 | 38990 ft | 495 kts | 166° |
| 2026-04-28 13:44 | -21.99853 | 112.52783 | 38993 ft | 495 kts | 166° |
| 2026-04-28 13:45 | -22.06338 | 112.55301 | 38996 ft | 494 kts | 166° |
| 2026-04-28 13:45 | -22.12806 | 112.57818 | 38987 ft | 494 kts | 166° |
| 2026-04-28 13:46 | -22.19274 | 112.60334 | 38988 ft | 494 kts | 166° |
| 2026-04-28 13:46 | -22.25750 | 112.62855 | 38989 ft | 495 kts | 166° |
| 2026-04-28 13:47 | -22.32236 | 112.65383 | 38985 ft | 495 kts | 166° |
| 2026-04-28 13:47 | -22.37619 | 112.67482 | 38992 ft | 496 kts | 166° |
| 2026-04-28 13:48 | -22.44116 | 112.70018 | 38986 ft | 496 kts | 166° |
| 2026-04-28 13:48 | -22.51667 | 112.72973 | 38989 ft | 497 kts | 166° |
| 2026-04-28 13:49 | -22.58168 | 112.75517 | 38990 ft | 497 kts | 166° |
| 2026-04-28 13:49 | -22.63617 | 112.77652 | 38987 ft | 497 kts | 166° |
| 2026-04-28 13:50 | -22.70127 | 112.80202 | 38990 ft | 497 kts | 166° |
| 2026-04-28 13:50 | -22.76633 | 112.82755 | 38991 ft | 498 kts | 166° |
| 2026-04-28 13:51 | -22.83145 | 112.85313 | 38987 ft | 497 kts | 167° |
| 2026-04-28 13:51 | -22.89649 | 112.87871 | 38993 ft | 498 kts | 167° |
| 2026-04-28 13:52 | -22.96160 | 112.90434 | 38986 ft | 498 kts | 167° |
| 2026-04-28 13:52 | -23.02629 | 112.92984 | 38990 ft | 498 kts | 167° |
| 2026-04-28 13:53 | -23.09170 | 112.95564 | 38994 ft | 497 kts | 167° |
| 2026-04-28 13:53 | -23.15624 | 112.98114 | 38989 ft | 497 kts | 167° |
| 2026-04-28 13:54 | -23.22117 | 113.00682 | 38994 ft | 496 kts | 167° |
| 2026-04-28 13:54 | -23.28602 | 113.03249 | 38988 ft | 495 kts | 167° |
| 2026-04-28 13:55 | -23.35076 | 113.05814 | 38996 ft | 496 kts | 167° |
| 2026-04-28 13:55 | -23.41554 | 113.08383 | 39003 ft | 495 kts | 167° |
| 2026-04-28 13:56 | -23.48025 | 113.10953 | 39002 ft | 494 kts | 167° |
| 2026-04-28 13:56 | -23.54489 | 113.13521 | 38995 ft | 494 kts | 167° |
| 2026-04-28 13:57 | -23.60944 | 113.16087 | 38997 ft | 494 kts | 167° |
| 2026-04-28 13:57 | -23.67403 | 113.18659 | 38997 ft | 494 kts | 167° |
| 2026-04-28 13:58 | -23.73855 | 113.21230 | 39004 ft | 494 kts | 167° |
| 2026-04-28 13:58 | -23.80309 | 113.23805 | 38991 ft | 494 kts | 167° |
| 2026-04-28 13:59 | -23.86755 | 113.26382 | 39004 ft | 493 kts | 167° |
| 2026-04-28 13:59 | -23.93195 | 113.28960 | 39005 ft | 493 kts | 167° |
| 2026-04-28 14:00 | -23.99631 | 113.31535 | 38999 ft | 493 kts | 167° |
| 2026-04-28 14:00 | -24.06069 | 113.34111 | 39003 ft | 491 kts | 168° |
| 2026-04-28 14:01 | -24.12437 | 113.36670 | 38993 ft | 490 kts | 168° |
| 2026-04-28 14:01 | -24.18842 | 113.39242 | 38999 ft | 490 kts | 168° |
| 2026-04-28 14:02 | -24.25247 | 113.41817 | 38997 ft | 490 kts | 168° |
| 2026-04-28 14:02 | -24.31648 | 113.44393 | 38994 ft | 490 kts | 168° |
| 2026-04-28 14:03 | -24.38052 | 113.46972 | 39000 ft | 490 kts | 168° |
| 2026-04-28 14:03 | -24.44459 | 113.49556 | 39000 ft | 490 kts | 168° |
| 2026-04-28 14:04 | -24.50863 | 113.52143 | 39004 ft | 490 kts | 168° |
| 2026-04-28 14:04 | -24.57265 | 113.54732 | 38998 ft | 491 kts | 168° |
| 2026-04-28 14:05 | -24.63670 | 113.57325 | 38991 ft | 491 kts | 168° |
| 2026-04-28 14:05 | -24.70086 | 113.59923 | 39000 ft | 492 kts | 168° |
| 2026-04-28 14:06 | -24.76503 | 113.62525 | 39002 ft | 492 kts | 168° |
| 2026-04-28 14:06 | -24.82922 | 113.65131 | 38998 ft | 491 kts | 168° |
| 2026-04-28 14:07 | -24.89213 | 113.68212 | 39002 ft | 504 kts | 156° |
| 2026-04-28 14:07 | -24.95124 | 113.72446 | 38999 ft | 509 kts | 153° |
| 2026-04-28 14:08 | -25.00957 | 113.76893 | 38998 ft | 510 kts | 153° |
| 2026-04-28 14:08 | -25.06778 | 113.81367 | 39001 ft | 511 kts | 153° |
| 2026-04-28 14:09 | -25.12619 | 113.85837 | 38993 ft | 511 kts | 153° |
| 2026-04-28 14:09 | -25.18467 | 113.90300 | 39000 ft | 511 kts | 153° |
| 2026-04-28 14:10 | -25.24317 | 113.94767 | 38997 ft | 512 kts | 153° |
| 2026-04-28 14:10 | -25.30174 | 113.99246 | 38992 ft | 512 kts | 153° |
| 2026-04-28 14:11 | -25.36044 | 114.03734 | 39003 ft | 514 kts | 153° |
| 2026-04-28 14:11 | -25.41935 | 114.08247 | 39004 ft | 516 kts | 153° |
| 2026-04-28 14:12 | -25.47831 | 114.12773 | 39001 ft | 516 kts | 153° |
| 2026-04-28 14:12 | -25.53725 | 114.17302 | 38993 ft | 516 kts | 153° |
| 2026-04-28 14:13 | -25.59619 | 114.21834 | 38996 ft | 516 kts | 153° |
| 2026-04-28 14:13 | -25.65512 | 114.26377 | 38992 ft | 516 kts | 153° |
| 2026-04-28 14:14 | -25.71413 | 114.30928 | 39008 ft | 516 kts | 153° |
| 2026-04-28 14:14 | -25.77307 | 114.35477 | 39013 ft | 516 kts | 153° |
| 2026-04-28 14:15 | -25.83203 | 114.40034 | 39005 ft | 516 kts | 153° |
| 2026-04-28 14:15 | -25.89092 | 114.44592 | 39007 ft | 516 kts | 153° |
| 2026-04-28 14:16 | -25.94998 | 114.49166 | 39015 ft | 518 kts | 153° |
| 2026-04-28 14:16 | -26.00903 | 114.53750 | 39004 ft | 518 kts | 153° |
| 2026-04-28 14:17 | -26.06810 | 114.58340 | 39005 ft | 518 kts | 153° |
| 2026-04-28 14:17 | -26.12716 | 114.62933 | 39005 ft | 518 kts | 153° |
| 2026-04-28 14:18 | -26.18629 | 114.67536 | 39001 ft | 518 kts | 153° |
| 2026-04-28 14:18 | -26.24503 | 114.72114 | 39010 ft | 519 kts | 153° |
| 2026-04-28 14:19 | -26.30417 | 114.76735 | 39022 ft | 519 kts | 152° |
| 2026-04-28 14:19 | -26.36339 | 114.81364 | 39017 ft | 520 kts | 152° |
| 2026-04-28 14:20 | -26.42266 | 114.86005 | 39022 ft | 521 kts | 152° |
| 2026-04-28 14:20 | -26.48188 | 114.90648 | 39019 ft | 520 kts | 152° |
| 2026-04-28 14:21 | -26.54118 | 114.95301 | 39024 ft | 521 kts | 152° |
| 2026-04-28 14:21 | -26.60052 | 114.99962 | 39024 ft | 522 kts | 152° |
| 2026-04-28 14:22 | -26.65987 | 115.04632 | 39018 ft | 521 kts | 152° |
| 2026-04-28 14:22 | -26.71918 | 115.09304 | 39014 ft | 522 kts | 152° |
| 2026-04-28 14:23 | -26.77856 | 115.13988 | 39023 ft | 523 kts | 152° |
| 2026-04-28 14:23 | -26.83800 | 115.18683 | 39014 ft | 523 kts | 152° |
| 2026-04-28 14:24 | -26.89747 | 115.23390 | 39023 ft | 523 kts | 152° |
| 2026-04-28 14:24 | -26.95690 | 115.28097 | 39013 ft | 523 kts | 152° |
| 2026-04-28 14:25 | -27.01638 | 115.32812 | 39023 ft | 524 kts | 152° |
| 2026-04-28 14:25 | -27.07584 | 115.37533 | 39008 ft | 524 kts | 152° |
| 2026-04-28 14:26 | -27.13540 | 115.42268 | 39015 ft | 524 kts | 152° |
| 2026-04-28 14:26 | -27.19492 | 115.47006 | 39019 ft | 524 kts | 152° |
| 2026-04-28 14:27 | -27.25441 | 115.51750 | 39027 ft | 525 kts | 151° |
| 2026-04-28 14:27 | -27.31363 | 115.56476 | 39027 ft | 526 kts | 151° |
| 2026-04-28 14:28 | -27.37356 | 115.61182 | 39027 ft | 522 kts | 156° |
| 2026-04-28 14:28 | -27.43728 | 115.65089 | 39027 ft | 517 kts | 160° |
| 2026-04-28 14:29 | -27.50091 | 115.68749 | 39027 ft | 517 kts | 160° |
| 2026-04-28 14:29 | -27.56517 | 115.72409 | 39027 ft | 517 kts | 160° |
| 2026-04-28 14:30 | -27.62946 | 115.76084 | 39028 ft | 519 kts | 160° |
| 2026-04-28 14:30 | -27.69378 | 115.79779 | 39027 ft | 519 kts | 160° |
| 2026-04-28 14:31 | -27.75809 | 115.83483 | 39026 ft | 519 kts | 160° |
| 2026-04-28 14:31 | -27.82242 | 115.87192 | 39027 ft | 520 kts | 160° |
| 2026-04-28 14:32 | -27.88690 | 115.90914 | 39027 ft | 520 kts | 160° |
| 2026-04-28 14:32 | -27.95130 | 115.94640 | 39026 ft | 521 kts | 160° |
| 2026-04-28 14:33 | -28.01578 | 115.98376 | 39026 ft | 520 kts | 160° |
| 2026-04-28 14:33 | -28.08018 | 116.02109 | 39018 ft | 520 kts | 160° |
| 2026-04-28 14:34 | -28.17676 | 116.07711 | 39029 ft | 520 kts | 160° |
| 2026-04-28 14:35 | -28.24116 | 116.11456 | 39003 ft | 520 kts | 160° |
| 2026-04-28 14:35 | -28.29468 | 116.14574 | 38999 ft | 521 kts | 160° |
| 2026-04-28 14:36 | -28.35917 | 116.18332 | 38993 ft | 521 kts | 160° |
| 2026-04-28 14:36 | -28.42363 | 116.22090 | 39004 ft | 521 kts | 160° |
| 2026-04-28 14:37 | -28.48810 | 116.25861 | 38996 ft | 521 kts | 159° |
| 2026-04-28 14:37 | -28.55261 | 116.29646 | 38994 ft | 522 kts | 159° |
| 2026-04-28 14:38 | -28.61723 | 116.33435 | 39001 ft | 522 kts | 159° |
| 2026-04-28 14:38 | -28.68181 | 116.37224 | 39002 ft | 522 kts | 159° |
| 2026-04-28 14:39 | -28.74637 | 116.41020 | 38999 ft | 522 kts | 159° |
| 2026-04-28 14:39 | -28.81104 | 116.44827 | 39004 ft | 523 kts | 159° |
| 2026-04-28 14:40 | -28.87571 | 116.48640 | 39007 ft | 524 kts | 159° |
| 2026-04-28 14:40 | -28.94040 | 116.52460 | 39025 ft | 523 kts | 159° |
| 2026-04-28 14:41 | -29.00513 | 116.56287 | 39025 ft | 524 kts | 158° |
| 2026-04-28 14:41 | -29.06992 | 116.60123 | 39028 ft | 524 kts | 158° |
| 2026-04-28 14:42 | -29.13467 | 116.63962 | 39027 ft | 524 kts | 158° |
| 2026-04-28 14:42 | -29.20246 | 116.66481 | 39028 ft | 503 kts | 180° |
| 2026-04-28 14:43 | -29.27168 | 116.66730 | 39026 ft | 496 kts | 187° |
| 2026-04-28 14:43 | -29.34060 | 116.66536 | 39028 ft | 495 kts | 189° |
| 2026-04-28 14:44 | -29.40945 | 116.66291 | 39029 ft | 495 kts | 188° |
| 2026-04-28 14:44 | -29.47844 | 116.66078 | 39034 ft | 496 kts | 188° |
| 2026-04-28 14:45 | -29.54749 | 116.65890 | 39036 ft | 496 kts | 188° |
| 2026-04-28 14:45 | -29.61650 | 116.65707 | 39037 ft | 496 kts | 188° |
| 2026-04-28 14:46 | -29.68560 | 116.65524 | 39036 ft | 496 kts | 188° |
| 2026-04-28 14:46 | -29.75420 | 116.65341 | 39036 ft | 496 kts | 188° |
| 2026-04-28 14:47 | -29.82371 | 116.65156 | 39036 ft | 496 kts | 188° |
| 2026-04-28 14:47 | -29.85774 | 116.65065 | 38904 ft | 496 kts | 188° |
| 2026-04-28 14:47 | -29.89193 | 116.64976 | 38847 ft | 484 kts | 188° |
| 2026-04-28 14:47 | -29.92514 | 116.64899 | 38818 ft | 473 kts | 188° |
| 2026-04-28 14:48 | -29.95801 | 116.64814 | 38225 ft | 473 kts | 188° |
| 2026-04-28 14:48 | -29.99092 | 116.64721 | 37587 ft | 473 kts | 188° |
| 2026-04-28 14:48 | -30.02382 | 116.64625 | 36981 ft | 473 kts | 187° |
| 2026-04-28 14:48 | -30.05674 | 116.64531 | 36351 ft | 474 kts | 187° |
| 2026-04-28 14:49 | -30.08969 | 116.64438 | 35712 ft | 474 kts | 186° |
| 2026-04-28 14:49 | -30.12267 | 116.64346 | 35051 ft | 474 kts | 186° |
| 2026-04-28 14:49 | -30.15575 | 116.64254 | 34330 ft | 478 kts | 186° |
| 2026-04-28 14:49 | -30.18916 | 116.64162 | 33561 ft | 482 kts | 186° |
| 2026-04-28 14:50 | -30.22278 | 116.64070 | 32785 ft | 485 kts | 185° |
| 2026-04-28 14:50 | -30.25660 | 116.63978 | 31971 ft | 488 kts | 185° |
| 2026-04-28 14:50 | -30.29063 | 116.63886 | 31143 ft | 490 kts | 184° |
| 2026-04-28 14:50 | -30.32480 | 116.63795 | 30451 ft | 490 kts | 184° |
| 2026-04-28 14:51 | -30.35875 | 116.63706 | 29859 ft | 487 kts | 183° |
| 2026-04-28 14:51 | -30.39249 | 116.63617 | 29270 ft | 484 kts | 183° |
| 2026-04-28 14:51 | -30.42603 | 116.63528 | 28675 ft | 481 kts | 184° |
| 2026-04-28 14:51 | -30.45932 | 116.63438 | 28085 ft | 478 kts | 184° |
| 2026-04-28 14:52 | -30.49243 | 116.63349 | 27495 ft | 474 kts | 184° |
| 2026-04-28 14:52 | -30.52530 | 116.63254 | 26907 ft | 471 kts | 184° |
| 2026-04-28 14:52 | -30.55751 | 116.62775 | 26255 ft | 464 kts | 197° |
| 2026-04-28 14:52 | -30.58855 | 116.61819 | 25617 ft | 460 kts | 200° |
| 2026-04-28 14:53 | -30.61893 | 116.60736 | 25030 ft | 455 kts | 201° |
| 2026-04-28 14:53 | -30.64891 | 116.59587 | 24444 ft | 451 kts | 202° |
| 2026-04-28 14:53 | -30.67848 | 116.58418 | 23849 ft | 447 kts | 203° |
| 2026-04-28 14:53 | -30.70772 | 116.57251 | 23251 ft | 443 kts | 203° |
| 2026-04-28 14:54 | -30.73671 | 116.56097 | 22687 ft | 439 kts | 203° |
| 2026-04-28 14:54 | -30.76547 | 116.54960 | 22095 ft | 434 kts | 202° |
| 2026-04-28 14:54 | -30.79392 | 116.53842 | 21499 ft | 432 kts | 202° |
| 2026-04-28 14:54 | -30.82232 | 116.52739 | 20882 ft | 428 kts | 202° |
| 2026-04-28 14:55 | -30.85039 | 116.51645 | 20268 ft | 425 kts | 202° |
| 2026-04-28 14:55 | -30.87831 | 116.50551 | 19653 ft | 421 kts | 202° |
| 2026-04-28 14:55 | -30.90591 | 116.49474 | 19034 ft | 418 kts | 202° |
| 2026-04-28 14:55 | -30.93340 | 116.48399 | 18433 ft | 415 kts | 202° |
| 2026-04-28 14:56 | -30.96073 | 116.47333 | 17818 ft | 413 kts | 202° |
| 2026-04-28 14:56 | -30.98769 | 116.46276 | 17204 ft | 407 kts | 202° |
| 2026-04-28 14:56 | -31.01439 | 116.45230 | 16590 ft | 402 kts | 201° |
| 2026-04-28 14:56 | -31.04080 | 116.44198 | 15978 ft | 399 kts | 201° |
| 2026-04-28 14:57 | -31.06660 | 116.43185 | 15365 ft | 394 kts | 201° |
| 2026-04-28 14:57 | -31.08411 | 116.42494 | 14954 ft | 392 kts | 201° |
| 2026-04-28 14:57 | -31.11809 | 116.41156 | 14156 ft | 387 kts | 201° |
| 2026-04-28 14:57 | -31.14343 | 116.40159 | 13556 ft | 382 kts | 201° |
| 2026-04-28 14:58 | -31.16848 | 116.39173 | 12967 ft | 378 kts | 201° |
| 2026-04-28 14:58 | -31.19325 | 116.38199 | 12374 ft | 374 kts | 201° |
| 2026-04-28 14:58 | -31.21779 | 116.37233 | 11788 ft | 370 kts | 200° |
| 2026-04-28 14:58 | -31.24209 | 116.36277 | 11200 ft | 366 kts | 200° |
| 2026-04-28 14:59 | -31.26604 | 116.35334 | 10766 ft | 359 kts | 200° |
| 2026-04-28 14:59 | -31.28916 | 116.34425 | 10636 ft | 342 kts | 200° |
| 2026-04-28 14:59 | -31.31117 | 116.33558 | 10522 ft | 326 kts | 200° |
| 2026-04-28 14:59 | -31.33220 | 116.32729 | 10379 ft | 312 kts | 200° |
| 2026-04-28 15:00 | -31.35234 | 116.31933 | 10238 ft | 299 kts | 200° |
| 2026-04-28 15:00 | -31.37167 | 116.31170 | 10104 ft | 287 kts | 200° |
| 2026-04-28 15:00 | -31.39029 | 116.30434 | 9938 ft | 279 kts | 200° |
| 2026-04-28 15:00 | -31.40896 | 116.29687 | 9621 ft | 291 kts | 201° |
| 2026-04-28 15:01 | -31.42761 | 116.28694 | 9401 ft | 296 kts | 209° |
| 2026-04-28 15:01 | -31.44569 | 116.27554 | 9030 ft | 295 kts | 210° |
| 2026-04-28 15:01 | -31.46372 | 116.26394 | 8548 ft | 295 kts | 210° |
| 2026-04-28 15:01 | -31.48161 | 116.25243 | 8178 ft | 292 kts | 210° |
| 2026-04-28 15:02 | -31.49936 | 116.24103 | 7825 ft | 290 kts | 210° |
| 2026-04-28 15:02 | -31.51703 | 116.22970 | 7477 ft | 289 kts | 210° |
| 2026-04-28 15:02 | -31.53464 | 116.21846 | 7133 ft | 287 kts | 209° |
| 2026-04-28 15:02 | -31.55217 | 116.20722 | 6777 ft | 286 kts | 209° |
| 2026-04-28 15:03 | -31.56954 | 116.19608 | 6430 ft | 284 kts | 209° |
| 2026-04-28 15:03 | -31.58682 | 116.18500 | 6084 ft | 283 kts | 209° |
| 2026-04-28 15:03 | -31.60394 | 116.17405 | 5872 ft | 274 kts | 209° |
| 2026-04-28 15:03 | -31.62028 | 116.16357 | 5740 ft | 262 kts | 209° |
| 2026-04-28 15:04 | -31.63616 | 116.15339 | 5487 ft | 258 kts | 208° |
| 2026-04-28 15:04 | -31.65181 | 116.14337 | 5252 ft | 256 kts | 208° |
| 2026-04-28 15:04 | -31.66745 | 116.13332 | 5124 ft | 256 kts | 208° |
| 2026-04-28 15:04 | -31.68304 | 116.12325 | 4897 ft | 255 kts | 208° |
| 2026-04-28 15:05 | -31.69855 | 116.11325 | 4655 ft | 254 kts | 208° |
| 2026-04-28 15:05 | -31.71403 | 116.10332 | 4348 ft | 253 kts | 208° |
| 2026-04-28 15:05 | -31.72944 | 116.09342 | 4025 ft | 251 kts | 208° |
| 2026-04-28 15:05 | -31.74460 | 116.08362 | 3767 ft | 247 kts | 208° |
| 2026-04-28 15:06 | -31.75775 | 116.07112 | 3510 ft | 242 kts | 227° |
| 2026-04-28 15:06 | -31.76821 | 116.05571 | 3211 ft | 240 kts | 231° |
| 2026-04-28 15:06 | -31.77818 | 116.04011 | 2910 ft | 237 kts | 231° |
| 2026-04-28 15:06 | -31.78795 | 116.02480 | 2682 ft | 231 kts | 231° |
| 2026-04-28 15:07 | -31.79813 | 116.01077 | 2502 ft | 219 kts | 216° |
| 2026-04-28 15:07 | -31.81083 | 116.00226 | 2396 ft | 204 kts | 195° |
| 2026-04-28 15:07 | -31.82431 | 115.99856 | 2208 ft | 195 kts | 189° |
| 2026-04-28 15:07 | -31.83744 | 115.99524 | 1925 ft | 192 kts | 191° |
| 2026-04-28 15:08 | -31.85017 | 115.99133 | 1660 ft | 186 kts | 193° |
| 2026-04-28 15:08 | -31.86240 | 115.98779 | 1421 ft | 175 kts | 192° |
| 2026-04-28 15:08 | -31.87383 | 115.98449 | 1189 ft | 163 kts | 193° |
| 2026-04-28 15:08 | -31.88439 | 115.98140 | 980 ft | 153 kts | 193° |
| 2026-04-28 15:09 | -31.89455 | 115.97845 | 768 ft | 144 kts | 192° |
| 2026-04-28 15:09 | -31.90396 | 115.97576 | 592 ft | 140 kts | 192° |
| 2026-04-28 15:09 | -31.91344 | 115.97309 | 391 ft | 140 kts | 193° |
| 2026-04-28 15:09 | -31.91981 | 115.97124 | 288 ft | 140 kts | 192° |
| 2026-04-28 15:10 | -31.93232 | 115.96744 | 67 ft | 140 kts | 192° |
| 2026-04-28 15:10 | -31.94070 | 115.96494 | 68 ft | 94 kts | 194° |
| 2026-04-28 15:10 | -31.94421 | 115.96424 | 67 ft | 25 kts | 152° |
| 2026-04-28 15:10 | -31.94494 | 115.96596 | 66 ft | 19 kts | 105° |
| 2026-04-28 15:11 | -31.94470 | 115.96732 | 74 ft | 17 kts | 25° |
| 2026-04-28 15:11 | -31.94350 | 115.96767 | 72 ft | 19 kts | 13° |
| 2026-04-28 15:11 | -31.94217 | 115.96801 | 63 ft | 20 kts | 12° |
| 2026-04-28 15:11 | -31.94076 | 115.96844 | 68 ft | 22 kts | 13° |
| 2026-04-28 15:12 | -31.93932 | 115.96891 | 63 ft | 17 kts | 35° |
| 2026-04-28 15:12 | -31.93913 | 115.96952 | 74 ft | 8 kts | 86° |
| 2026-04-28 15:12 | -31.93927 | 115.97028 | 67 ft | 11 kts | 109° |
| 2026-04-28 15:12 | -31.93952 | 115.97122 | 71 ft | 13 kts | 103° |
| 2026-04-28 15:13 | -31.93953 | 115.97232 | 68 ft | 14 kts | 71° |
| 2026-04-28 15:13 | -31.93913 | 115.97344 | 74 ft | 16 kts | 82° |
| 2026-04-28 15:13 | -31.93921 | 115.97427 | 74 ft | 2 kts | 141° |
| 2026-04-28 15:13 | -31.93941 | 115.97436 | 68 ft | 5 kts | 160° |
| 2026-04-28 15:14 | -31.93978 | 115.97443 | 74 ft | 5 kts | 173° |
| 2026-04-28 15:14 | -31.93989 | 115.97445 | 74 ft | 0 kts | 174° |
| 2026-04-28 15:14 | -31.93993 | 115.97445 | 71 ft | 2 kts | 174° |
| 2026-04-28 15:14 | -31.93998 | 115.97446 | 74 ft | 0 kts | 173° |